createdAt,value
2018-07-11T00:00:59.213Z,37.07
2018-07-11T00:03:33.009Z,22.83
2018-07-11T00:06:02.375Z,28.53
2018-07-11T00:08:31.061Z,25.70
2018-07-11T00:10:59.573Z,31.00
2018-07-11T00:13:28.199Z,30.13
2018-07-11T00:15:57.081Z,26.13
2018-07-11T00:18:26.043Z,26.47
2018-07-11T00:20:54.530Z,23.43
2018-07-11T00:23:23.314Z,26.03
2018-07-11T00:25:52.213Z,25.60
2018-07-11T00:28:20.991Z,28.57
2018-07-11T00:30:49.988Z,38.00
2018-07-11T00:33:18.671Z,21.53
2018-07-11T00:35:48.569Z,30.67
2018-07-11T00:38:17.200Z,28.03
2018-07-11T00:40:45.792Z,28.60
2018-07-11T00:43:14.243Z,35.93
2018-07-11T00:45:43.011Z,32.40
2018-07-11T00:48:11.626Z,28.80
2018-07-11T00:50:40.114Z,27.07
2018-07-11T00:53:08.711Z,26.13
2018-07-11T00:55:37.782Z,35.47
2018-07-11T00:58:45.117Z,22.47
2018-07-11T01:01:14.907Z,22.53
2018-07-11T01:03:49.881Z,24.40
2018-07-11T01:06:18.949Z,30.10
2018-07-11T01:08:49.598Z,30.50
2018-07-11T01:11:18.535Z,27.20
2018-07-11T01:13:48.808Z,29.00
2018-07-11T01:16:18.509Z,25.20
2018-07-11T01:18:55.473Z,24.47
2018-07-11T01:21:24.161Z,26.30
2018-07-11T01:23:52.617Z,26.83
2018-07-11T01:26:26.391Z,29.53
2018-07-11T01:28:54.949Z,26.07
2018-07-11T01:31:24.602Z,20.53
2018-07-11T01:33:53.794Z,28.00
2018-07-11T01:36:22.911Z,24.30
2018-07-11T01:38:51.112Z,24.17
2018-07-11T01:41:19.644Z,27.17
2018-07-11T01:43:48.648Z,24.03
2018-07-11T01:46:17.385Z,22.20
2018-07-11T01:48:46.273Z,19.93
2018-07-11T01:51:15.195Z,17.50
2018-07-11T01:53:43.808Z,17.57
2018-07-11T01:56:12.456Z,17.10
2018-07-11T01:58:44.103Z,21.27
2018-07-11T02:01:12.853Z,21.30
2018-07-11T02:03:41.380Z,22.07
2018-07-11T02:06:10.018Z,28.23
2018-07-11T02:08:38.716Z,22.50
2018-07-11T02:11:07.485Z,21.53
2018-07-11T02:13:36.732Z,27.70
2018-07-11T02:16:05.399Z,19.00
2018-07-11T02:18:35.880Z,21.77
2018-07-11T02:21:05.798Z,23.03
2018-07-11T02:23:36.256Z,19.07
2018-07-11T02:26:04.849Z,24.90
2018-07-11T02:28:33.387Z,15.10
2018-07-11T02:31:02.105Z,29.10
2018-07-11T02:33:30.545Z,22.47
2018-07-11T02:35:59.145Z,29.73
2018-07-11T02:38:27.984Z,18.80
2018-07-11T02:40:56.545Z,28.40
2018-07-11T02:43:25.121Z,31.20
2018-07-11T02:45:53.668Z,36.33
2018-07-11T02:48:21.839Z,24.93
2018-07-11T02:50:50.516Z,25.23
2018-07-11T02:53:20.052Z,32.60
2018-07-11T02:55:49.544Z,28.23
2018-07-11T02:58:18.318Z,34.33
2018-07-11T03:00:47.107Z,29.20
2018-07-11T03:03:15.855Z,30.33
2018-07-11T03:05:44.326Z,28.20
2018-07-11T03:08:13.697Z,31.70
2018-07-11T03:10:41.926Z,26.80
2018-07-11T03:13:10.365Z,28.80
2018-07-11T03:15:38.854Z,35.27
2018-07-11T03:18:07.631Z,33.27
2018-07-11T03:20:36.253Z,27.27
2018-07-11T03:23:04.850Z,25.87
2018-07-11T03:25:33.676Z,24.40
2018-07-11T03:28:02.134Z,28.07
2018-07-11T03:30:30.621Z,25.93
2018-07-11T03:32:59.275Z,25.07
2018-07-11T03:35:27.960Z,29.37
2018-07-11T03:37:56.599Z,25.47
2018-07-11T03:40:25.599Z,32.63
2018-07-11T03:42:54.328Z,29.80
2018-07-11T03:45:22.764Z,27.40
2018-07-11T03:47:50.967Z,30.53
2018-07-11T03:50:19.404Z,33.93
2018-07-11T03:52:48.382Z,24.17
2018-07-11T03:55:16.549Z,28.30
2018-07-11T03:57:45.044Z,29.07
2018-07-11T04:00:13.531Z,24.63
2018-07-11T04:02:42.355Z,25.73
2018-07-11T04:05:11.056Z,23.83
2018-07-11T04:07:39.551Z,28.00
2018-07-11T04:10:08.591Z,29.20
2018-07-11T04:12:37.054Z,25.80
2018-07-11T04:15:05.609Z,31.73
2018-07-11T04:17:34.501Z,26.97
2018-07-11T04:20:03.456Z,26.37
2018-07-11T04:22:32.085Z,30.23
2018-07-11T04:25:00.837Z,30.83
2018-07-11T04:27:29.512Z,29.87
2018-07-11T04:29:58.277Z,27.73
2018-07-11T04:32:26.653Z,29.07
2018-07-11T04:34:55.678Z,31.43
2018-07-11T04:37:24.127Z,29.83
2018-07-11T04:39:52.570Z,26.50
2018-07-11T04:42:21.668Z,25.30
2018-07-11T04:44:50.365Z,23.77
2018-07-11T04:47:19.060Z,24.10
2018-07-11T04:49:47.712Z,23.53
2018-07-11T04:52:16.300Z,26.77
2018-07-11T04:54:45.129Z,23.37
2018-07-11T04:57:13.736Z,21.07
2018-07-11T04:59:42.261Z,23.47
2018-07-11T05:02:11.050Z,27.90
2018-07-11T05:04:39.793Z,28.97
2018-07-11T05:07:09.256Z,28.03
2018-07-11T05:09:38.213Z,29.87
2018-07-11T05:12:06.617Z,24.17
2018-07-11T05:14:35.389Z,19.37
2018-07-11T05:17:03.878Z,25.00
2018-07-11T05:19:32.509Z,20.13
2018-07-11T05:22:01.240Z,23.47
2018-07-11T05:24:29.727Z,28.73
2018-07-11T05:26:58.216Z,25.97
2018-07-11T05:29:26.724Z,19.97
2018-07-11T05:31:55.717Z,23.00
2018-07-11T05:34:23.979Z,27.43
2018-07-11T05:36:52.447Z,27.77
2018-07-11T05:39:21.132Z,24.53
2018-07-11T05:41:50.260Z,26.93
2018-07-11T05:44:19.503Z,23.30
2018-07-11T05:46:49.572Z,17.40
2018-07-11T05:49:18.052Z,20.73
2018-07-11T05:51:47.466Z,21.37
2018-07-11T05:54:16.088Z,23.93
2018-07-11T05:56:45.421Z,18.93
2018-07-11T05:59:15.277Z,19.67
2018-07-11T06:02:05.470Z,26.00
2018-07-11T06:05:02.502Z,20.00
2018-07-11T06:08:02.387Z,18.00
2018-07-11T06:10:35.354Z,21.73
2018-07-11T06:13:04.346Z,18.07
2018-07-11T06:15:33.323Z,16.17
2018-07-11T06:18:02.504Z,22.40
2018-07-11T06:20:46.225Z,17.80
2018-07-11T06:23:30.823Z,27.47
2018-07-11T06:26:00.291Z,15.63
2018-07-11T06:28:30.233Z,17.20
2018-07-11T06:30:59.522Z,16.67
2018-07-11T06:33:29.126Z,12.70
2018-07-11T06:35:58.425Z,12.33
2018-07-11T06:38:27.639Z,11.10
2018-07-11T06:40:57.045Z,15.20
2018-07-11T06:43:26.137Z,9.60
2018-07-11T06:45:55.171Z,12.33
2018-07-11T06:48:24.230Z,9.90
2018-07-11T06:50:53.464Z,12.40
2018-07-11T06:53:22.572Z,10.63
2018-07-11T06:55:51.682Z,11.00
2018-07-11T06:58:21.056Z,8.57
2018-07-11T07:00:50.740Z,8.17
2018-07-11T07:03:19.880Z,10.53
2018-07-11T07:05:48.712Z,8.70
2018-07-11T07:08:17.665Z,10.70
2018-07-11T07:10:48.359Z,7.87
2018-07-11T07:13:17.482Z,11.57
2018-07-11T07:15:46.688Z,7.73
2018-07-11T07:18:15.476Z,8.20
2018-07-11T07:20:45.663Z,12.93
2018-07-11T07:23:14.941Z,8.00
2018-07-11T07:25:44.121Z,11.50
2018-07-11T07:28:13.120Z,9.47
2018-07-11T07:30:41.991Z,11.37
2018-07-11T07:33:10.856Z,9.27
2018-07-11T07:35:39.710Z,11.63
2018-07-11T07:38:08.906Z,9.13
2018-07-11T07:40:37.969Z,11.03
2018-07-11T07:43:06.875Z,11.97
2018-07-11T07:45:36.048Z,9.93
2018-07-11T07:48:05.640Z,9.10
2018-07-11T07:50:34.630Z,10.07
2018-07-11T07:53:03.892Z,10.63
2018-07-11T07:55:33.328Z,6.53
2018-07-11T07:58:02.490Z,10.37
2018-07-11T08:00:31.171Z,8.10
2018-07-11T08:03:00.588Z,5.70
2018-07-11T08:05:29.339Z,12.43
2018-07-11T08:07:58.575Z,7.27
2018-07-11T08:10:27.542Z,8.57
2018-07-11T08:12:56.046Z,7.10
2018-07-11T08:15:25.478Z,8.20
2018-07-11T08:17:54.555Z,6.80
2018-07-11T08:20:23.617Z,14.73
2018-07-11T08:23:06.692Z,8.50
2018-07-11T08:25:46.888Z,8.50
2018-07-11T08:28:26.720Z,7.80
2018-07-11T08:31:06.930Z,9.87
2018-07-11T08:36:03.494Z,3.87
2018-07-11T08:38:46.420Z,6.80
2018-07-11T08:41:33.925Z,7.40
2018-07-11T08:44:16.354Z,7.10
2018-07-11T08:46:52.740Z,9.80
2018-07-11T08:51:39.354Z,5.33
2018-07-11T08:54:16.953Z,7.00
2018-07-11T08:56:53.368Z,7.63
2018-07-11T08:59:43.622Z,10.00
2018-07-11T09:04:33.401Z,7.00
2018-07-11T09:07:14.187Z,6.23
2018-07-11T09:10:55.733Z,9.67
2018-07-11T09:13:39.218Z,6.13
2018-07-11T09:16:42.345Z,6.63
2018-07-11T09:19:23.969Z,6.70
2018-07-11T09:22:18.725Z,13.40
2018-07-11T09:24:49.329Z,7.20
2018-07-11T09:27:18.415Z,9.93
2018-07-11T09:29:47.921Z,13.77
2018-07-11T09:32:16.999Z,6.97
2018-07-11T09:34:46.395Z,12.47
2018-07-11T09:37:15.706Z,10.07
2018-07-11T09:39:44.548Z,7.07
2018-07-11T09:42:14.007Z,6.63
2018-07-11T09:44:43.234Z,8.17
2018-07-11T09:47:18.053Z,8.80
2018-07-11T09:49:47.390Z,6.47
2018-07-11T09:52:16.591Z,8.53
2018-07-11T09:54:45.858Z,8.77
2018-07-11T09:57:14.722Z,9.97
2018-07-11T09:59:43.449Z,5.70
2018-07-11T10:02:12.472Z,9.07
2018-07-11T10:04:41.658Z,5.77
2018-07-11T10:07:10.799Z,8.00
2018-07-11T10:09:39.615Z,7.40
2018-07-11T10:12:08.391Z,5.63
2018-07-11T10:14:42.101Z,8.40
2018-07-11T10:17:12.055Z,5.73
2018-07-11T10:19:41.221Z,7.43
2018-07-11T10:22:09.691Z,7.50
2018-07-11T10:24:39.122Z,8.90
2018-07-11T10:27:08.093Z,7.67
2018-07-11T10:32:10.757Z,9.40
2018-07-11T10:34:39.550Z,8.63
2018-07-11T10:37:08.596Z,10.73
2018-07-11T10:39:37.667Z,7.87
2018-07-11T10:42:07.188Z,8.50
2018-07-11T10:44:36.165Z,8.20
2018-07-11T10:47:13.002Z,8.57
2018-07-11T10:49:43.498Z,4.63
2018-07-11T10:52:12.546Z,6.87
2018-07-11T10:54:42.053Z,6.27
2018-07-11T10:57:11.492Z,5.60
2018-07-11T10:59:41.002Z,6.27
2018-07-11T11:02:09.583Z,7.90
2018-07-11T11:04:38.739Z,7.50
2018-07-11T11:07:07.765Z,8.20
2018-07-11T11:09:37.538Z,7.77
2018-07-11T11:12:07.346Z,6.13
2018-07-11T11:14:37.927Z,6.53
2018-07-11T11:17:06.926Z,10.83
2018-07-11T11:19:36.501Z,10.43
2018-07-11T11:22:05.800Z,6.77
2018-07-11T11:24:36.201Z,7.93
2018-07-11T11:27:06.794Z,9.90
2018-07-11T11:29:36.087Z,11.17
2018-07-11T11:32:05.832Z,8.57
2018-07-11T11:34:34.981Z,6.57
2018-07-11T11:37:03.794Z,9.33
2018-07-11T11:39:33.008Z,8.13
2018-07-11T11:42:02.073Z,8.40
2018-07-11T11:44:30.926Z,6.90
2018-07-11T11:47:01.656Z,8.40
2018-07-11T11:49:31.429Z,9.60
2018-07-11T11:52:00.861Z,9.43
2018-07-11T11:54:30.361Z,8.33
2018-07-11T11:56:59.641Z,10.70
2018-07-11T11:59:28.670Z,16.23
2018-07-11T12:01:58.437Z,11.90
2018-07-11T12:04:27.863Z,5.97
2018-07-11T12:06:57.042Z,7.03
2018-07-11T12:09:25.870Z,5.70
2018-07-11T12:11:55.401Z,7.80
2018-07-11T12:14:24.726Z,13.47
2018-07-11T12:16:54.114Z,8.40
2018-07-11T12:19:23.229Z,9.10
2018-07-11T12:21:52.106Z,6.53
2018-07-11T12:24:21.128Z,7.67
2018-07-11T12:26:51.030Z,7.57
2018-07-11T12:29:20.189Z,7.77
2018-07-11T12:31:49.603Z,8.50
2018-07-11T12:34:18.861Z,6.57
2018-07-11T12:36:48.390Z,6.50
2018-07-11T12:39:17.508Z,8.60
2018-07-11T12:41:46.808Z,9.10
2018-07-11T12:44:19.049Z,7.43
2018-07-11T12:46:50.481Z,9.43
2018-07-11T12:49:20.769Z,10.50
2018-07-11T12:51:51.950Z,7.60
2018-07-11T12:54:23.047Z,6.40
2018-07-11T12:56:57.406Z,11.83
2018-07-11T12:59:27.780Z,8.17
2018-07-11T13:01:57.669Z,7.13
2018-07-11T13:17:28.377Z,6.40
2018-07-11T13:19:58.704Z,12.77
2018-07-11T13:22:30.287Z,9.23
2018-07-11T13:34:46.635Z,9.10
2018-07-11T13:47:07.751Z,13.60
2018-07-11T13:49:37.424Z,8.97
2018-07-11T13:52:07.160Z,6.63
2018-07-11T13:54:37.352Z,13.73
2018-07-11T13:57:06.693Z,8.60
2018-07-11T13:59:37.299Z,7.97
2018-07-11T14:15:08.177Z,5.47
2018-07-11T14:17:38.251Z,10.87
2018-07-11T14:20:10.859Z,6.00
2018-07-11T14:22:46.677Z,12.37
2018-07-11T14:35:03.426Z,7.30
2018-07-11T14:37:35.110Z,8.00
2018-07-11T14:40:05.821Z,5.43
2018-07-11T14:42:35.570Z,10.07
2018-07-11T14:45:05.575Z,9.07
2018-07-11T14:47:43.160Z,6.83
2018-07-11T15:03:08.959Z,7.00
2018-07-11T15:05:40.387Z,10.00
2018-07-11T15:08:09.557Z,7.37
2018-07-11T15:10:40.372Z,5.10
2018-07-11T15:13:11.143Z,5.77
2018-07-11T15:15:40.423Z,5.83
2018-07-11T15:31:05.569Z,6.33
2018-07-11T15:33:37.480Z,6.20
2018-07-11T15:36:07.332Z,10.30
2018-07-11T15:38:38.554Z,9.43
2018-07-11T15:41:11.824Z,9.93
2018-07-11T15:43:42.219Z,9.27
2018-07-11T15:46:12.434Z,8.23
2018-07-11T15:48:44.846Z,8.87
2018-07-11T16:10:53.248Z,13.03
2018-07-11T16:13:24.135Z,8.40
2018-07-11T16:15:57.177Z,14.37
2018-07-11T16:18:27.436Z,10.90
2018-07-11T16:20:57.300Z,9.27
2018-07-11T16:23:27.606Z,10.90
2018-07-11T16:25:59.360Z,13.67
2018-07-11T16:28:29.184Z,11.70
2018-07-11T16:44:01.101Z,15.10
2018-07-11T16:46:30.507Z,16.37
2018-07-11T16:48:59.890Z,12.83
2018-07-11T16:51:30.995Z,13.33
2018-07-11T16:54:01.873Z,14.10
2018-07-11T16:56:30.996Z,12.33
2018-07-11T16:59:01.928Z,18.43
2018-07-11T17:01:35.064Z,17.23
2018-07-11T17:04:07.776Z,13.83
2018-07-11T17:06:39.109Z,12.53
2018-07-11T17:09:09.777Z,12.67
2018-07-11T17:12:01.749Z,13.97
2018-07-11T17:14:32.422Z,12.77
2018-07-11T17:17:08.270Z,12.77
2018-07-11T17:19:46.421Z,13.70
2018-07-11T17:22:17.074Z,20.73
2018-07-11T17:24:49.311Z,13.47
2018-07-11T17:27:23.749Z,17.23
2018-07-11T17:29:56.985Z,14.20
2018-07-11T17:32:27.277Z,17.70
2018-07-11T17:34:56.974Z,13.40
2018-07-11T17:37:46.682Z,15.40
2018-07-11T17:40:17.507Z,12.97
2018-07-11T17:42:49.115Z,15.60
2018-07-11T17:58:20.252Z,17.73
2018-07-11T18:13:54.433Z,19.03
2018-07-11T18:29:22.125Z,8.80
2018-07-11T18:32:02.453Z,13.03
2018-07-11T18:34:45.720Z,17.30
2018-07-11T18:37:25.055Z,18.10
2018-07-11T18:40:05.449Z,13.57
2018-07-11T18:42:47.761Z,18.77
2018-07-11T18:47:28.213Z,18.80
2018-07-11T18:50:11.076Z,17.67
2018-07-11T18:52:53.841Z,16.47
2018-07-11T18:55:38.525Z,19.93
2018-07-11T18:58:33.420Z,19.00
2018-07-11T19:01:14.689Z,17.03
2018-07-11T19:03:57.483Z,22.37
2018-07-11T19:06:35.765Z,24.67
2018-07-11T19:09:12.233Z,17.67
2018-07-11T19:12:01.799Z,22.80
2018-07-11T19:14:39.277Z,19.87
2018-07-11T19:19:20.491Z,21.43
2018-07-11T19:22:00.935Z,21.23
2018-07-11T19:24:44.314Z,17.90
2018-07-11T19:27:22.930Z,18.87
2018-07-11T19:30:07.499Z,17.83
2018-07-11T19:32:49.209Z,19.67
2018-07-11T19:35:42.075Z,16.63
2018-07-11T19:38:32.627Z,18.70
2018-07-11T19:41:11.735Z,17.60
2018-07-11T19:53:35.432Z,19.43
2018-07-11T19:56:49.421Z,21.03
2018-07-11T20:12:37.343Z,17.90
2018-07-11T20:15:33.591Z,20.40
2018-07-11T20:18:08.356Z,19.87
2018-07-11T20:21:12.100Z,17.53
2018-07-11T20:27:12.416Z,17.43
2018-07-11T20:30:17.992Z,22.30
2018-07-11T20:33:22.249Z,21.77
2018-07-11T20:39:25.631Z,19.37
2018-07-11T20:42:31.491Z,23.23
2018-07-11T20:51:37.397Z,20.17
2018-07-11T20:54:32.412Z,20.73
2018-07-11T20:57:35.526Z,19.63
2018-07-11T21:03:33.095Z,23.30
2018-07-11T21:11:40.562Z,23.73
2018-07-11T21:14:37.920Z,22.10
2018-07-11T21:18:33.107Z,20.23
2018-07-11T21:21:28.121Z,16.37
2018-07-11T21:24:36.572Z,23.50
2018-07-11T21:27:38.678Z,20.80
2018-07-11T21:30:41.756Z,20.80
2018-07-11T21:33:43.227Z,19.30
2018-07-11T21:36:14.909Z,21.80
2018-07-11T21:38:48.038Z,25.07
2018-07-11T21:41:18.748Z,17.70
2018-07-11T21:43:48.628Z,27.57
2018-07-11T21:46:19.102Z,15.63
2018-07-11T21:48:49.587Z,23.40
2018-07-11T21:51:19.151Z,22.23
2018-07-11T21:53:50.078Z,21.93
2018-07-11T21:56:22.848Z,19.23
2018-07-11T21:58:53.267Z,23.60
2018-07-11T22:01:23.444Z,23.40
2018-07-11T22:03:53.856Z,22.17
2018-07-11T22:06:23.985Z,20.77
2018-07-11T22:08:54.427Z,19.70
2018-07-11T22:11:24.205Z,19.27
2018-07-11T22:13:53.715Z,20.30
2018-07-11T22:16:24.455Z,26.10
2018-07-11T22:18:56.702Z,24.93
2018-07-11T22:21:26.007Z,22.83
2018-07-11T22:23:53.674Z,27.73
2018-07-11T22:26:22.847Z,24.93
2018-07-11T22:28:50.606Z,25.23
2018-07-11T22:31:20.214Z,24.80
2018-07-11T22:33:48.705Z,27.17
2018-07-11T22:36:17.125Z,27.93
2018-07-11T22:38:45.292Z,23.00
2018-07-11T22:41:13.020Z,25.80
2018-07-11T22:43:40.839Z,22.40
2018-07-11T22:46:09.782Z,24.17
2018-07-11T22:48:37.645Z,25.80
2018-07-11T22:51:07.371Z,24.63
2018-07-11T22:53:37.338Z,25.73
2018-07-11T22:56:06.749Z,29.50
2018-07-11T22:58:36.618Z,20.03
2018-07-11T23:01:07.714Z,29.57
2018-07-11T23:03:36.163Z,26.87
2018-07-11T23:18:59.123Z,23.57
2018-07-11T23:21:26.884Z,24.93
2018-07-11T23:23:55.304Z,22.40
2018-07-11T23:26:25.784Z,20.10
2018-07-11T23:38:39.057Z,31.03
2018-07-11T23:41:06.619Z,26.70
2018-07-11T23:56:34.385Z,25.90
2018-07-11T23:59:02.047Z,25.43
